createdAt,value
2023-05-05T00:02:23.507Z,64.28
2023-05-05T00:04:53.467Z,65.12
2023-05-05T00:07:21.300Z,66.57
2023-05-05T00:09:49.153Z,66.95
2023-05-05T00:12:16.940Z,70.19
2023-05-05T00:14:44.722Z,69.89
2023-05-05T00:17:13.899Z,70.42
2023-05-05T00:19:43.961Z,69.95
2023-05-05T00:22:11.733Z,69.18
2023-05-05T00:24:39.736Z,68.88
2023-05-05T00:27:07.486Z,68.72
2023-05-05T00:29:35.339Z,69.82
2023-05-05T00:32:03.270Z,70.21
2023-05-05T00:34:32.355Z,68.88
2023-05-05T00:37:00.690Z,68.61
2023-05-05T00:39:30.701Z,68.32
2023-05-05T00:42:00.611Z,69.04
2023-05-05T00:44:37.851Z,69.47
2023-05-05T00:47:06.302Z,69.83
2023-05-05T00:49:36.036Z,69.85
2023-05-05T00:52:07.660Z,70.20
2023-05-05T00:54:35.784Z,69.40
2023-05-05T00:57:04.227Z,69.01
2023-05-05T00:59:34.973Z,69.45
2023-05-05T01:02:03.013Z,69.57
2023-05-05T01:04:33.218Z,69.29
2023-05-05T01:07:23.518Z,70.05
2023-05-05T01:10:14.973Z,69.71
2023-05-05T01:12:54.867Z,68.59
2023-05-05T01:15:32.618Z,68.39
2023-05-05T01:18:07.484Z,68.91
2023-05-05T01:20:45.920Z,72.19
2023-05-05T01:23:28.760Z,71.84
2023-05-05T01:26:35.897Z,73.25
2023-05-05T01:29:27.617Z,72.14
2023-05-05T01:32:02.331Z,71.91
2023-05-05T01:34:36.499Z,71.71
2023-05-05T01:37:09.076Z,72.25
2023-05-05T01:39:38.888Z,73.44
2023-05-05T01:42:09.628Z,74.16
2023-05-05T01:44:38.697Z,73.49
2023-05-05T01:47:11.720Z,73.03
2023-05-05T01:49:40.655Z,73.25
2023-05-05T01:52:10.770Z,71.82
2023-05-05T01:54:40.101Z,72.13
2023-05-05T01:57:09.663Z,71.64
2023-05-05T01:59:40.003Z,71.97
2023-05-05T02:02:13.048Z,75.32
2023-05-05T02:04:44.383Z,73.79
2023-05-05T02:07:14.970Z,73.92
2023-05-05T02:09:45.615Z,72.89
2023-05-05T02:12:14.301Z,72.07
2023-05-05T02:14:44.385Z,73.16
2023-05-05T02:17:17.058Z,74.72
2023-05-05T02:19:48.832Z,74.46
2023-05-05T02:22:17.014Z,77.27
2023-05-05T02:24:45.667Z,76.42
2023-05-05T02:27:18.802Z,76.49
2023-05-05T02:29:50.074Z,78.25
2023-05-05T02:32:24.855Z,76.31
2023-05-05T02:34:55.819Z,75.74
2023-05-05T02:37:28.339Z,77.51
2023-05-05T02:40:02.584Z,76.49
2023-05-05T02:42:37.059Z,75.50
2023-05-05T02:45:13.172Z,75.76
2023-05-05T02:47:45.396Z,78.74
2023-05-05T02:50:13.412Z,77.67
2023-05-05T02:52:47.937Z,79.16
2023-05-05T02:55:17.009Z,77.63
2023-05-05T02:57:50.904Z,76.70
2023-05-05T03:00:28.555Z,75.85
2023-05-05T03:03:08.955Z,78.44
2023-05-05T03:05:45.889Z,78.29
2023-05-05T03:08:18.406Z,77.87
2023-05-05T03:10:54.714Z,76.93
2023-05-05T03:13:27.389Z,76.66
2023-05-05T03:15:57.869Z,76.29
2023-05-05T03:18:30.875Z,76.99
2023-05-05T03:21:08.590Z,78.30
2023-05-05T03:23:39.118Z,77.52
2023-05-05T03:26:18.150Z,75.75
2023-05-05T03:28:46.351Z,76.00
2023-05-05T03:31:25.691Z,75.90
2023-05-05T03:33:58.463Z,75.45
2023-05-05T03:36:31.854Z,77.97
2023-05-05T03:39:00.608Z,79.85
2023-05-05T03:41:33.003Z,82.15
2023-05-05T03:44:01.171Z,82.44
2023-05-05T03:46:29.034Z,82.01
2023-05-05T03:48:58.407Z,81.66
2023-05-05T03:51:28.050Z,81.32
2023-05-05T03:53:56.636Z,81.17
2023-05-05T03:56:24.445Z,79.95
2023-05-05T03:58:53.302Z,80.13
2023-05-05T04:01:22.009Z,79.39
2023-05-05T04:03:50.182Z,78.72
2023-05-05T04:06:19.375Z,78.39
2023-05-05T04:08:47.492Z,78.39
2023-05-05T04:11:16.438Z,78.34
2023-05-05T04:13:44.218Z,78.02
2023-05-05T04:16:12.101Z,78.86
2023-05-05T04:18:40.145Z,79.29
2023-05-05T04:21:07.881Z,79.35
2023-05-05T04:23:37.023Z,77.91
2023-05-05T04:26:04.855Z,77.38
2023-05-05T04:28:32.651Z,78.33
2023-05-05T04:31:01.260Z,77.44
2023-05-05T04:33:30.891Z,79.15
2023-05-05T04:35:59.287Z,82.35
2023-05-05T04:38:27.177Z,84.06
2023-05-05T04:40:56.376Z,83.18
2023-05-05T04:43:24.328Z,82.51
2023-05-05T04:45:55.672Z,81.56
2023-05-05T04:48:26.791Z,80.13
2023-05-05T04:50:56.928Z,78.25
2023-05-05T04:53:24.958Z,78.70
2023-05-05T04:55:52.842Z,79.73
2023-05-05T04:58:22.010Z,78.89
2023-05-05T05:00:49.874Z,77.99
2023-05-05T05:03:17.821Z,78.16
2023-05-05T05:05:45.683Z,79.77
2023-05-05T05:08:13.412Z,80.26
2023-05-05T05:10:43.909Z,80.28
2023-05-05T05:13:12.895Z,80.41
2023-05-05T05:15:43.046Z,80.62
2023-05-05T05:18:11.082Z,78.76
2023-05-05T05:20:41.999Z,78.49
2023-05-05T05:23:10.120Z,76.25
2023-05-05T05:25:43.429Z,75.41
2023-05-05T05:28:12.602Z,74.86
2023-05-05T05:30:48.076Z,74.63
2023-05-05T05:33:16.087Z,74.58
2023-05-05T05:35:45.540Z,74.56
2023-05-05T05:38:13.753Z,74.44
2023-05-05T05:40:44.239Z,74.07
2023-05-05T05:43:14.734Z,74.59
2023-05-05T05:45:42.653Z,74.16
2023-05-05T05:48:14.897Z,75.00
2023-05-05T05:50:47.593Z,74.38
2023-05-05T05:53:15.353Z,72.39
2023-05-05T05:55:43.417Z,72.35
2023-05-05T05:58:11.221Z,71.94
2023-05-05T06:00:39.052Z,72.10
2023-05-05T06:03:10.249Z,70.87
2023-05-05T06:05:41.555Z,70.58
2023-05-05T06:08:11.659Z,71.15
2023-05-05T06:10:45.010Z,70.63
2023-05-05T06:13:17.110Z,70.89
2023-05-05T06:15:48.336Z,70.10
2023-05-05T06:18:17.027Z,70.03
2023-05-05T06:20:46.572Z,71.11
2023-05-05T06:23:16.185Z,71.33
2023-05-05T06:25:49.156Z,71.32
2023-05-05T06:28:19.502Z,72.24
2023-05-05T06:30:47.344Z,71.23
2023-05-05T06:33:15.173Z,68.32
2023-05-05T06:35:43.112Z,68.69
2023-05-05T06:38:13.173Z,66.79
2023-05-05T06:40:43.471Z,65.98
2023-05-05T06:43:11.248Z,66.16
2023-05-05T06:45:46.016Z,66.77
2023-05-05T06:48:13.815Z,67.58
2023-05-05T06:50:42.227Z,65.29
2023-05-05T06:53:10.007Z,67.40
2023-05-05T06:55:43.740Z,68.57
2023-05-05T06:58:11.859Z,66.81
2023-05-05T07:00:39.809Z,67.79
2023-05-05T07:03:07.934Z,66.02
2023-05-05T07:05:36.647Z,64.92
2023-05-05T07:08:05.078Z,64.41
2023-05-05T07:10:33.926Z,65.23
2023-05-05T07:13:03.043Z,65.36
2023-05-05T07:15:30.957Z,64.99
2023-05-05T07:17:58.878Z,65.16
2023-05-05T07:20:26.929Z,64.62
2023-05-05T07:22:54.879Z,66.48
2023-05-05T07:25:23.610Z,65.99
2023-05-05T07:27:51.456Z,65.24
2023-05-05T07:30:21.209Z,64.74
2023-05-05T07:32:49.370Z,63.86
2023-05-05T07:35:17.473Z,62.77
2023-05-05T07:37:45.427Z,65.36
2023-05-05T07:40:15.544Z,65.37
2023-05-05T07:42:43.398Z,64.95
2023-05-05T07:45:12.076Z,63.71
2023-05-05T07:47:43.565Z,64.22
2023-05-05T07:50:12.298Z,63.68
2023-05-05T07:55:11.260Z,63.31
2023-05-05T07:57:39.276Z,62.76
2023-05-05T08:00:08.491Z,63.14
2023-05-05T08:02:44.133Z,62.38
2023-05-05T08:05:12.831Z,62.94
2023-05-05T08:07:41.856Z,64.16
2023-05-05T08:10:11.281Z,63.52
2023-05-05T08:12:39.619Z,64.27
2023-05-05T08:15:08.396Z,63.98
2023-05-05T08:17:49.034Z,64.63
2023-05-05T08:20:19.884Z,64.64
2023-05-05T08:22:48.065Z,66.37
2023-05-05T08:25:18.301Z,67.09
2023-05-05T08:27:46.154Z,67.39
2023-05-05T08:30:16.509Z,67.45
2023-05-05T08:32:44.478Z,68.41
2023-05-05T08:35:13.924Z,70.15
2023-05-05T08:37:41.868Z,69.64
2023-05-05T08:40:13.968Z,69.99
2023-05-05T08:42:42.330Z,69.34
2023-05-05T08:45:11.503Z,69.66
2023-05-05T08:47:40.247Z,69.23
2023-05-05T08:50:12.093Z,69.03
2023-05-05T08:52:44.372Z,68.90
2023-05-05T08:55:19.033Z,70.14
2023-05-05T08:57:52.492Z,70.34
2023-05-05T09:00:21.349Z,69.45
2023-05-05T09:02:50.134Z,67.73
2023-05-05T09:05:18.389Z,68.08
2023-05-05T09:07:47.786Z,67.92
2023-05-05T09:10:15.889Z,67.63
2023-05-05T09:12:43.991Z,67.90
2023-05-05T09:15:13.732Z,66.75
2023-05-05T09:17:44.169Z,66.87
2023-05-05T09:20:13.331Z,65.94
2023-05-05T09:22:42.631Z,65.42
2023-05-05T09:25:17.928Z,67.01
2023-05-05T09:27:47.469Z,65.84
2023-05-05T09:30:17.484Z,64.73
2023-05-05T09:32:47.585Z,63.88
2023-05-05T09:35:16.332Z,63.65
2023-05-05T09:37:48.089Z,63.56
2023-05-05T09:40:18.806Z,62.65
2023-05-05T09:42:47.323Z,60.81
2023-05-05T09:45:28.219Z,59.36
2023-05-05T09:48:00.130Z,60.29
2023-05-05T09:50:30.532Z,60.81
2023-05-05T09:53:00.345Z,61.83
2023-05-05T09:55:31.067Z,56.90
2023-05-05T09:58:18.480Z,55.29
2023-05-05T10:00:50.086Z,55.33
2023-05-05T10:03:17.975Z,53.64
2023-05-05T10:06:04.624Z,55.50
2023-05-05T10:08:40.411Z,55.45
2023-05-05T10:11:09.797Z,53.80
2023-05-05T10:13:42.948Z,56.58
2023-05-05T10:16:13.759Z,55.92
2023-05-05T10:18:47.286Z,55.92
2023-05-05T10:21:21.385Z,56.85
2023-05-05T10:23:55.268Z,56.25
2023-05-05T10:26:27.396Z,55.99
2023-05-05T10:28:56.862Z,56.48
2023-05-05T10:31:31.230Z,56.68
2023-05-05T10:34:04.519Z,57.13
2023-05-05T10:36:32.849Z,54.88
2023-05-05T10:39:01.996Z,56.70
2023-05-05T10:41:33.026Z,55.42
2023-05-05T10:44:03.689Z,55.22
2023-05-05T10:46:32.891Z,54.02
2023-05-05T10:49:15.311Z,55.06
2023-05-05T10:51:51.200Z,55.62
2023-05-05T10:54:29.454Z,55.36
2023-05-05T10:57:02.675Z,56.85
2023-05-05T10:59:46.544Z,56.45
2023-05-05T11:02:31.357Z,57.70
2023-05-05T11:05:18.069Z,61.19
2023-05-05T11:07:47.291Z,60.81
2023-05-05T11:10:16.242Z,57.67
2023-05-05T11:13:20.605Z,56.07
2023-05-05T11:15:49.884Z,57.16
2023-05-05T11:18:33.919Z,57.91
2023-05-05T11:21:15.861Z,56.02
2023-05-05T11:23:49.131Z,56.63
2023-05-05T11:26:18.615Z,55.67
2023-05-05T11:28:59.809Z,54.79
2023-05-05T11:31:28.155Z,54.10
2023-05-05T11:33:56.418Z,54.96
2023-05-05T11:36:40.736Z,56.29
2023-05-05T11:39:23.996Z,52.88
2023-05-05T11:42:23.216Z,51.37
2023-05-05T11:44:52.612Z,53.50
2023-05-05T11:47:33.670Z,54.04
2023-05-05T11:50:19.272Z,54.21
2023-05-05T11:52:48.183Z,51.75
2023-05-05T11:55:22.882Z,52.71
2023-05-05T11:57:50.828Z,52.43
2023-05-05T12:00:20.888Z,51.14
2023-05-05T12:02:57.324Z,49.96
2023-05-05T12:05:25.410Z,50.83
2023-05-05T12:07:58.389Z,51.40
2023-05-05T12:10:26.454Z,51.18
2023-05-05T12:12:55.643Z,48.64
2023-05-05T12:15:32.274Z,48.62
2023-05-05T12:18:03.267Z,48.21
2023-05-05T12:20:36.491Z,47.91
2023-05-05T12:23:04.957Z,48.79
2023-05-05T12:25:36.846Z,47.69
2023-05-05T12:28:06.244Z,48.57
2023-05-05T12:30:36.275Z,47.87
2023-05-05T12:33:05.750Z,48.80
2023-05-05T12:35:34.362Z,50.61
2023-05-05T12:38:02.362Z,48.65
2023-05-05T12:40:46.496Z,50.33
2023-05-05T12:43:28.848Z,49.44
2023-05-05T12:46:03.079Z,49.01
2023-05-05T12:48:30.947Z,51.02
2023-05-05T12:51:14.603Z,50.45
2023-05-05T12:53:42.348Z,49.08
2023-05-05T12:56:35.478Z,49.02
2023-05-05T12:59:04.893Z,48.92
2023-05-05T13:01:35.172Z,49.12
2023-05-05T13:04:11.976Z,49.54
2023-05-05T13:06:40.628Z,50.92
2023-05-05T13:09:08.970Z,49.53
2023-05-05T13:11:37.705Z,49.62
2023-05-05T13:14:05.869Z,47.93
2023-05-05T13:16:35.160Z,48.36
2023-05-05T13:19:03.002Z,46.63
2023-05-05T13:21:31.570Z,46.30
2023-05-05T13:24:16.209Z,46.48
2023-05-05T13:26:47.228Z,45.92
2023-05-05T13:29:16.412Z,48.07
2023-05-05T13:31:47.825Z,47.94
2023-05-05T13:34:15.806Z,46.43
2023-05-05T13:36:43.703Z,45.98
2023-05-05T13:39:12.502Z,45.45
2023-05-05T13:41:40.428Z,44.65
2023-05-05T13:44:08.255Z,45.89
2023-05-05T13:46:36.207Z,44.93
2023-05-05T13:49:05.381Z,48.23
2023-05-05T13:51:34.644Z,46.63
2023-05-05T13:54:04.056Z,48.66
2023-05-05T13:56:32.110Z,50.40
2023-05-05T13:58:59.938Z,48.71
2023-05-05T14:01:28.098Z,47.92
2023-05-05T14:03:57.463Z,49.23
2023-05-05T14:06:27.750Z,48.36
2023-05-05T14:08:55.484Z,48.63
2023-05-05T14:11:23.344Z,50.28
2023-05-05T14:13:51.940Z,49.62
2023-05-05T14:16:19.963Z,48.55
2023-05-05T14:18:47.925Z,48.59
2023-05-05T14:21:15.703Z,51.53
2023-05-05T14:23:44.943Z,50.87
2023-05-05T14:26:12.762Z,51.50
2023-05-05T14:28:40.603Z,51.47
2023-05-05T14:31:08.333Z,51.76
2023-05-05T14:33:38.572Z,53.04
2023-05-05T14:36:07.041Z,52.95
2023-05-05T14:38:35.359Z,52.17
2023-05-05T14:41:06.967Z,50.50
2023-05-05T14:43:34.918Z,50.49
2023-05-05T14:46:06.932Z,51.51
2023-05-05T14:48:37.673Z,49.85
2023-05-05T14:51:06.160Z,48.91
2023-05-05T14:53:33.885Z,51.53
2023-05-05T14:56:02.206Z,53.47
2023-05-05T14:58:31.536Z,53.74
2023-05-05T15:01:00.378Z,55.45
2023-05-05T15:03:28.586Z,54.44
2023-05-05T15:05:57.072Z,54.98
2023-05-05T15:08:25.070Z,55.63
2023-05-05T15:10:53.312Z,55.08
2023-05-05T15:13:21.414Z,55.63
2023-05-05T15:15:51.258Z,55.36
2023-05-05T15:18:19.248Z,54.72
2023-05-05T15:20:47.035Z,54.51
2023-05-05T15:23:15.470Z,54.90
2023-05-05T15:25:43.572Z,55.22
2023-05-05T15:28:11.359Z,57.30
2023-05-05T15:30:39.142Z,57.51
2023-05-05T15:33:08.593Z,57.53
2023-05-05T15:35:36.851Z,58.15
2023-05-05T15:38:04.759Z,57.44
2023-05-05T15:40:32.633Z,57.60
2023-05-05T15:43:00.507Z,56.93
2023-05-05T15:45:28.360Z,56.95
2023-05-05T15:47:56.163Z,58.00
2023-05-05T15:50:25.330Z,57.57
2023-05-05T15:52:56.665Z,57.61
2023-05-05T15:55:24.826Z,57.00
2023-05-05T15:57:52.760Z,58.44
2023-05-05T16:00:20.991Z,59.44
2023-05-05T16:02:48.967Z,62.92
2023-05-05T16:05:16.892Z,66.81
2023-05-05T16:07:46.154Z,68.00
2023-05-05T16:10:14.312Z,70.68
2023-05-05T16:12:42.503Z,69.79
2023-05-05T16:15:13.486Z,71.42
2023-05-05T16:17:41.522Z,72.91
2023-05-05T16:20:10.614Z,73.21
2023-05-05T16:22:38.628Z,72.20
2023-05-05T16:25:09.095Z,71.42
2023-05-05T16:27:37.304Z,71.63
2023-05-05T16:30:06.085Z,72.53
2023-05-05T16:32:33.957Z,72.95
2023-05-05T16:35:01.938Z,74.17
2023-05-05T16:37:29.780Z,74.58
2023-05-05T16:39:57.680Z,78.18
2023-05-05T16:42:26.885Z,80.30
2023-05-05T16:44:54.791Z,80.34
2023-05-05T16:47:22.678Z,83.02
2023-05-05T16:49:53.298Z,83.83
2023-05-05T16:52:21.356Z,81.99
2023-05-05T16:54:55.336Z,85.46
2023-05-05T16:57:23.308Z,89.01
2023-05-05T16:59:55.784Z,90.36
2023-05-05T17:02:24.039Z,90.63
2023-05-05T17:04:51.929Z,87.90
2023-05-05T17:07:19.676Z,84.99
2023-05-05T17:09:47.592Z,85.52
2023-05-05T17:12:17.921Z,86.92
2023-05-05T17:14:46.287Z,85.98
2023-05-05T17:17:15.595Z,84.22
2023-05-05T17:19:44.711Z,83.97
2023-05-05T17:22:12.528Z,84.26
2023-05-05T17:24:40.361Z,82.46
2023-05-05T17:27:08.338Z,82.79
2023-05-05T17:29:40.352Z,84.97
2023-05-05T17:32:08.405Z,81.83
2023-05-05T17:34:37.783Z,82.26
2023-05-05T17:37:06.055Z,82.76
2023-05-05T17:39:34.088Z,83.20
2023-05-05T17:42:04.045Z,82.32
2023-05-05T17:44:34.759Z,83.34
2023-05-05T17:47:03.940Z,82.88
2023-05-05T17:49:31.845Z,85.87
2023-05-05T17:52:01.202Z,83.87
2023-05-05T17:54:29.248Z,83.18
2023-05-05T17:56:57.406Z,81.76
2023-05-05T17:59:27.581Z,83.33
2023-05-05T18:01:55.550Z,83.17
2023-05-05T18:04:23.918Z,83.03
2023-05-05T18:06:51.963Z,83.16
2023-05-05T18:09:21.223Z,84.81
2023-05-05T18:11:49.066Z,86.93
2023-05-05T18:14:19.894Z,86.15
2023-05-05T18:16:49.403Z,84.13
2023-05-05T18:19:18.185Z,83.71
2023-05-05T18:21:46.143Z,82.65
2023-05-05T18:24:20.435Z,83.08
2023-05-05T18:26:51.575Z,83.59
2023-05-05T18:29:19.912Z,83.70
2023-05-05T18:31:52.957Z,83.59
2023-05-05T18:34:23.500Z,84.98
2023-05-05T18:36:54.210Z,84.57
2023-05-05T18:39:22.202Z,85.02
2023-05-05T18:41:51.479Z,84.53
2023-05-05T18:44:19.921Z,84.78
2023-05-05T18:46:47.986Z,84.82
2023-05-05T18:49:16.217Z,85.45
2023-05-05T18:51:44.318Z,85.94
2023-05-05T18:54:12.297Z,85.40
2023-05-05T18:56:40.161Z,83.98
2023-05-05T18:59:09.534Z,85.40
2023-05-05T19:01:37.298Z,85.27
2023-05-05T19:04:15.533Z,85.37
2023-05-05T19:06:52.405Z,87.62
2023-05-05T19:09:20.528Z,91.79
2023-05-05T19:11:48.390Z,89.78
2023-05-05T19:14:17.737Z,89.73
2023-05-05T19:16:45.739Z,88.79
2023-05-05T19:19:13.712Z,88.46
2023-05-05T19:21:44.264Z,87.93
2023-05-05T19:24:12.571Z,88.35
2023-05-05T19:26:40.496Z,88.10
2023-05-05T19:29:10.461Z,87.66
2023-05-05T19:31:42.034Z,87.64
2023-05-05T19:34:09.899Z,87.70
2023-05-05T19:36:37.719Z,87.53
2023-05-05T19:39:05.852Z,89.01
2023-05-05T19:41:35.268Z,88.41
2023-05-05T19:44:03.203Z,87.53
2023-05-05T19:46:31.184Z,87.92
2023-05-05T19:49:01.278Z,87.89
2023-05-05T19:51:29.078Z,89.88
2023-05-05T19:53:56.918Z,92.63
2023-05-05T19:56:24.917Z,90.93
2023-05-05T19:58:57.313Z,89.90
2023-05-05T20:01:25.744Z,89.27
2023-05-05T20:03:55.761Z,88.82
2023-05-05T20:06:25.643Z,88.50
2023-05-05T20:08:54.669Z,88.87
2023-05-05T20:11:22.996Z,89.63
2023-05-05T20:13:51.569Z,88.66
2023-05-05T20:16:19.699Z,88.81
2023-05-05T20:18:47.517Z,88.18
2023-05-05T20:21:16.605Z,87.53
2023-05-05T20:23:46.442Z,88.93
2023-05-05T20:26:14.467Z,88.29
2023-05-05T20:28:45.276Z,87.75
2023-05-05T20:31:15.005Z,87.07
2023-05-05T20:33:43.089Z,87.11
2023-05-05T20:36:11.746Z,87.51
2023-05-05T20:38:39.661Z,87.81
2023-05-05T20:41:08.860Z,88.21
2023-05-05T20:43:37.329Z,88.38
2023-05-05T20:46:05.305Z,87.87
2023-05-05T20:48:33.315Z,88.19
2023-05-05T20:51:04.572Z,86.65
2023-05-05T20:53:32.668Z,86.13
2023-05-05T20:56:00.753Z,86.11
2023-05-05T20:58:30.486Z,85.98
2023-05-05T21:00:58.372Z,86.68
2023-05-05T21:03:26.359Z,87.98
2023-05-05T21:05:54.284Z,87.33
2023-05-05T21:08:22.123Z,87.67
2023-05-05T21:10:49.890Z,89.10
2023-05-05T21:13:18.101Z,92.48
2023-05-05T21:15:47.507Z,92.11
2023-05-05T21:18:15.600Z,91.20
2023-05-05T21:20:43.478Z,93.79
2023-05-05T21:23:11.797Z,91.47
2023-05-05T21:25:39.692Z,90.73
2023-05-05T21:28:07.659Z,89.80
2023-05-05T21:30:35.669Z,89.14
2023-05-05T21:33:05.018Z,88.50
2023-05-05T21:35:33.046Z,88.83
2023-05-05T21:38:01.359Z,88.52
2023-05-05T21:40:29.606Z,88.99
2023-05-05T21:42:57.451Z,88.07
2023-05-05T21:45:25.386Z,88.25
2023-05-05T21:47:53.405Z,87.61
2023-05-05T21:50:22.750Z,87.67
2023-05-05T21:52:50.555Z,87.10
2023-05-05T21:55:18.410Z,87.55
2023-05-05T21:57:46.449Z,87.23
2023-05-05T22:00:16.776Z,86.81
2023-05-05T22:02:45.480Z,87.38
2023-05-05T22:05:15.804Z,87.15
2023-05-05T22:07:44.976Z,88.02
2023-05-05T22:10:12.978Z,90.46
2023-05-05T22:12:41.129Z,90.32
2023-05-05T22:15:10.100Z,89.01
2023-05-05T22:17:38.218Z,88.87
2023-05-05T22:20:08.762Z,89.36
2023-05-05T22:22:36.819Z,91.00
2023-05-05T22:25:07.076Z,90.40
2023-05-05T22:27:35.277Z,89.80
2023-05-05T22:30:03.694Z,89.40
2023-05-05T22:32:33.759Z,91.66
2023-05-05T22:35:01.812Z,92.50
2023-05-05T22:37:29.716Z,91.73
2023-05-05T22:39:57.611Z,91.66
2023-05-05T22:42:26.948Z,94.81
2023-05-05T22:44:54.951Z,95.12
2023-05-05T22:47:22.943Z,94.17
2023-05-05T22:49:53.532Z,94.50
2023-05-05T22:52:21.487Z,94.97
2023-05-05T22:54:49.256Z,95.40
2023-05-05T22:57:17.142Z,94.19
2023-05-05T22:59:46.540Z,92.41
2023-05-05T23:02:16.765Z,91.69
2023-05-05T23:04:45.215Z,91.02
2023-05-05T23:07:13.795Z,90.81
2023-05-05T23:09:41.720Z,92.78
2023-05-05T23:12:09.567Z,92.74
2023-05-05T23:14:37.806Z,95.26
2023-05-05T23:17:07.137Z,96.70
2023-05-05T23:19:35.103Z,95.89
2023-05-05T23:22:03.168Z,94.06
2023-05-05T23:24:31.616Z,92.43
2023-05-05T23:27:01.873Z,94.47
2023-05-05T23:29:29.865Z,95.95
2023-05-05T23:31:58.278Z,96.03
2023-05-05T23:34:27.856Z,94.92
2023-05-05T23:36:55.937Z,94.47
2023-05-05T23:39:23.937Z,93.70
2023-05-05T23:41:51.744Z,93.39
2023-05-05T23:44:19.513Z,92.00
2023-05-05T23:46:47.380Z,91.57
2023-05-05T23:49:15.254Z,94.15
2023-05-05T23:51:44.472Z,94.23
2023-05-05T23:54:12.276Z,95.07
2023-05-05T23:56:40.756Z,94.00
2023-05-05T23:59:08.646Z,93.53
